sensor_id;sensor_type;location;lat;lon;timestamp;temperature;humidity
44671;DHT22;48397;53.016;-2.260;2022-08-11T00:01:09;17.60;99.90
44671;DHT22;48397;53.016;-2.260;2022-08-11T00:03:46;17.50;99.90
44671;DHT22;48397;53.016;-2.260;2022-08-11T00:06:26;17.40;99.90
44671;DHT22;48397;53.016;-2.260;2022-08-11T00:08:56;17.40;99.90
44671;DHT22;48397;53.016;-2.260;2022-08-11T00:11:34;17.30;99.90
44671;DHT22;48397;53.016;-2.260;2022-08-11T00:14:13;17.40;99.90
44671;DHT22;48397;53.016;-2.260;2022-08-11T00:16:55;17.30;99.90
44671;DHT22;48397;53.016;-2.260;2022-08-11T00:19:27;17.40;99.90
44671;DHT22;48397;53.016;-2.260;2022-08-11T00:22:20;17.30;99.90
44671;DHT22;48397;53.016;-2.260;2022-08-11T00:24:49;16.20;99.90
44671;DHT22;48397;53.016;-2.260;2022-08-11T00:27:36;17.20;99.90
44671;DHT22;48397;53.016;-2.260;2022-08-11T00:30:08;17.10;99.90
44671;DHT22;48397;53.016;-2.260;2022-08-11T00:32:40;16.90;99.90
44671;DHT22;48397;53.016;-2.260;2022-08-11T00:35:11;16.80;99.90
44671;DHT22;48397;53.016;-2.260;2022-08-11T00:38:00;16.70;99.90
44671;DHT22;48397;53.016;-2.260;2022-08-11T00:40:44;16.70;99.90
44671;DHT22;48397;53.016;-2.260;2022-08-11T00:43:23;16.50;99.90
44671;DHT22;48397;53.016;-2.260;2022-08-11T00:49:12;16.30;99.90
44671;DHT22;48397;53.016;-2.260;2022-08-11T01:06:46;15.80;99.90
44671;DHT22;48397;53.016;-2.260;2022-08-11T01:09:27;15.70;99.90
44671;DHT22;48397;53.016;-2.260;2022-08-11T01:12:29;15.60;99.90
44671;DHT22;48397;53.016;-2.260;2022-08-11T01:20:25;15.50;99.90
44671;DHT22;48397;53.016;-2.260;2022-08-11T01:33:01;15.60;99.90
44671;DHT22;48397;53.016;-2.260;2022-08-11T01:48:16;14.90;99.90
44671;DHT22;48397;53.016;-2.260;2022-08-11T01:59:40;15.10;99.90
44671;DHT22;48397;53.016;-2.260;2022-08-11T02:11:27;15.10;99.90
44671;DHT22;48397;53.016;-2.260;2022-08-11T02:14:30;14.90;99.90
44671;DHT22;48397;53.016;-2.260;2022-08-11T02:17:19;15.00;99.90
44671;DHT22;48397;53.016;-2.260;2022-08-11T02:20:26;15.00;99.90
44671;DHT22;48397;53.016;-2.260;2022-08-11T02:23:22;14.90;99.90
44671;DHT22;48397;53.016;-2.260;2022-08-11T02:26:47;14.80;99.90
44671;DHT22;48397;53.016;-2.260;2022-08-11T02:29:20;14.80;99.90
44671;DHT22;48397;53.016;-2.260;2022-08-11T02:32:18;14.90;99.90
44671;DHT22;48397;53.016;-2.260;2022-08-11T02:44:05;15.00;99.90
44671;DHT22;48397;53.016;-2.260;2022-08-11T02:47:05;14.80;99.90
44671;DHT22;48397;53.016;-2.260;2022-08-11T02:49:49;14.70;99.90
44671;DHT22;48397;53.016;-2.260;2022-08-11T02:53:11;14.60;99.90
44671;DHT22;48397;53.016;-2.260;2022-08-11T02:56:02;14.40;99.90
44671;DHT22;48397;53.016;-2.260;2022-08-11T02:58:53;14.30;99.90
44671;DHT22;48397;53.016;-2.260;2022-08-11T03:02:08;14.30;99.90
44671;DHT22;48397;53.016;-2.260;2022-08-11T03:07:20;14.40;99.90
44671;DHT22;48397;53.016;-2.260;2022-08-11T03:22:07;14.00;99.90
44671;DHT22;48397;53.016;-2.260;2022-08-11T03:30:14;13.80;99.90
44671;DHT22;48397;53.016;-2.260;2022-08-11T03:33:25;13.80;99.90
44671;DHT22;48397;53.016;-2.260;2022-08-11T03:41:41;13.70;99.90
44671;DHT22;48397;53.016;-2.260;2022-08-11T03:47:42;13.90;99.90
44671;DHT22;48397;53.016;-2.260;2022-08-11T03:56:45;14.10;99.90
44671;DHT22;48397;53.016;-2.260;2022-08-11T04:14:32;13.80;99.90
44671;DHT22;48397;53.016;-2.260;2022-08-11T04:28:39;13.40;99.90
44671;DHT22;48397;53.016;-2.260;2022-08-11T04:31:37;13.20;99.90
44671;DHT22;48397;53.016;-2.260;2022-08-11T04:55:54;13.30;99.90
44671;DHT22;48397;53.016;-2.260;2022-08-11T05:11:29;13.50;99.90
44671;DHT22;48397;53.016;-2.260;2022-08-11T05:17:12;13.60;99.90
44671;DHT22;48397;53.016;-2.260;2022-08-11T05:19:59;13.60;99.90
44671;DHT22;48397;53.016;-2.260;2022-08-11T05:22:50;13.60;99.90
44671;DHT22;48397;53.016;-2.260;2022-08-11T05:25:43;13.60;99.90
44671;DHT22;48397;53.016;-2.260;2022-08-11T05:29:00;13.50;99.90
44671;DHT22;48397;53.016;-2.260;2022-08-11T05:31:56;13.50;99.90
44671;DHT22;48397;53.016;-2.260;2022-08-11T05:34:47;13.50;99.90
44671;DHT22;48397;53.016;-2.260;2022-08-11T05:37:32;13.60;99.90
44671;DHT22;48397;53.016;-2.260;2022-08-11T05:40:13;13.60;99.90
44671;DHT22;48397;53.016;-2.260;2022-08-11T05:43:02;13.80;99.90
44671;DHT22;48397;53.016;-2.260;2022-08-11T05:46:03;13.90;99.90
44671;DHT22;48397;53.016;-2.260;2022-08-11T05:48:52;14.10;99.90
44671;DHT22;48397;53.016;-2.260;2022-08-11T05:51:42;14.10;99.90
44671;DHT22;48397;53.016;-2.260;2022-08-11T05:54:39;14.30;99.90
44671;DHT22;48397;53.016;-2.260;2022-08-11T05:57:36;14.30;99.90
44671;DHT22;48397;53.016;-2.260;2022-08-11T06:00:18;14.40;99.90
44671;DHT22;48397;53.016;-2.260;2022-08-11T06:02:58;14.40;99.90
44671;DHT22;48397;53.016;-2.260;2022-08-11T06:08:05;14.80;99.90
44671;DHT22;48397;53.016;-2.260;2022-08-11T06:10:37;14.90;99.90
44671;DHT22;48397;53.016;-2.260;2022-08-11T06:13:06;15.10;99.90
44671;DHT22;48397;53.016;-2.260;2022-08-11T06:15:46;15.20;99.90
44671;DHT22;48397;53.016;-2.260;2022-08-11T06:18:15;15.30;99.90
44671;DHT22;48397;53.016;-2.260;2022-08-11T06:20:52;15.50;99.90
44671;DHT22;48397;53.016;-2.260;2022-08-11T06:23:31;15.60;99.90
44671;DHT22;48397;53.016;-2.260;2022-08-11T06:26:08;15.60;99.90
44671;DHT22;48397;53.016;-2.260;2022-08-11T06:28:38;15.80;99.90
44671;DHT22;48397;53.016;-2.260;2022-08-11T06:31:19;15.90;99.90
44671;DHT22;48397;53.016;-2.260;2022-08-11T06:34:22;15.90;99.90
44671;DHT22;48397;53.016;-2.260;2022-08-11T06:48:03;16.70;99.90
44671;DHT22;48397;53.016;-2.260;2022-08-11T06:50:33;16.90;99.90
44671;DHT22;48397;53.016;-2.260;2022-08-11T06:53:20;17.00;99.90
44671;DHT22;48397;53.016;-2.260;2022-08-11T06:55:48;17.10;99.90
44671;DHT22;48397;53.016;-2.260;2022-08-11T06:58:39;17.30;99.90
44671;DHT22;48397;53.016;-2.260;2022-08-11T07:04:39;17.70;99.90
44671;DHT22;48397;53.016;-2.260;2022-08-11T07:13:18;18.00;99.90
44671;DHT22;48397;53.016;-2.260;2022-08-11T07:16:18;18.20;99.90
44671;DHT22;48397;53.016;-2.260;2022-08-11T07:19:00;18.40;99.90
44671;DHT22;48397;53.016;-2.260;2022-08-11T07:21:48;18.60;99.90
44671;DHT22;48397;53.016;-2.260;2022-08-11T07:27:45;18.70;99.90
44671;DHT22;48397;53.016;-2.260;2022-08-11T07:30:34;18.90;99.90
44671;DHT22;48397;53.016;-2.260;2022-08-11T07:33:04;19.00;99.90
44671;DHT22;48397;53.016;-2.260;2022-08-11T07:35:35;19.10;99.90
44671;DHT22;48397;53.016;-2.260;2022-08-11T07:38:08;19.30;99.90
44671;DHT22;48397;53.016;-2.260;2022-08-11T07:40:42;19.40;99.90
44671;DHT22;48397;53.016;-2.260;2022-08-11T07:43:11;19.60;99.90
44671;DHT22;48397;53.016;-2.260;2022-08-11T07:45:45;19.60;99.90
44671;DHT22;48397;53.016;-2.260;2022-08-11T07:48:32;19.70;99.90
44671;DHT22;48397;53.016;-2.260;2022-08-11T07:51:20;19.90;99.90
44671;DHT22;48397;53.016;-2.260;2022-08-11T07:54:09;20.20;99.90
44671;DHT22;48397;53.016;-2.260;2022-08-11T07:56:44;20.20;99.90
44671;DHT22;48397;53.016;-2.260;2022-08-11T07:59:34;20.50;99.90
44671;DHT22;48397;53.016;-2.260;2022-08-11T08:02:39;20.50;99.90
44671;DHT22;48397;53.016;-2.260;2022-08-11T08:05:28;20.70;99.90
44671;DHT22;48397;53.016;-2.260;2022-08-11T08:08:16;21.00;99.90
44671;DHT22;48397;53.016;-2.260;2022-08-11T08:11:03;21.00;99.90
44671;DHT22;48397;53.016;-2.260;2022-08-11T08:13:54;21.10;99.90
44671;DHT22;48397;53.016;-2.260;2022-08-11T08:16:41;21.20;99.90
44671;DHT22;48397;53.016;-2.260;2022-08-11T08:19:28;21.40;99.90
44671;DHT22;48397;53.016;-2.260;2022-08-11T08:21:58;21.50;99.90
44671;DHT22;48397;53.016;-2.260;2022-08-11T08:24:46;21.70;99.90
44671;DHT22;48397;53.016;-2.260;2022-08-11T08:27:14;21.80;99.90
44671;DHT22;48397;53.016;-2.260;2022-08-11T08:29:43;21.90;99.90
44671;DHT22;48397;53.016;-2.260;2022-08-11T08:32:30;22.00;99.90
44671;DHT22;48397;53.016;-2.260;2022-08-11T08:34:58;22.20;99.90
44671;DHT22;48397;53.016;-2.260;2022-08-11T08:37:27;22.40;99.90
44671;DHT22;48397;53.016;-2.260;2022-08-11T08:40:13;22.50;99.90
44671;DHT22;48397;53.016;-2.260;2022-08-11T08:42:47;22.60;99.90
44671;DHT22;48397;53.016;-2.260;2022-08-11T08:45:18;22.70;99.90
44671;DHT22;48397;53.016;-2.260;2022-08-11T08:47:57;23.00;99.90
44671;DHT22;48397;53.016;-2.260;2022-08-11T08:50:28;23.00;99.90
44671;DHT22;48397;53.016;-2.260;2022-08-11T08:53:21;23.10;99.90
44671;DHT22;48397;53.016;-2.260;2022-08-11T08:55:50;23.20;99.90
44671;DHT22;48397;53.016;-2.260;2022-08-11T08:58:19;23.40;99.90
44671;DHT22;48397;53.016;-2.260;2022-08-11T09:00:51;23.40;99.90
44671;DHT22;48397;53.016;-2.260;2022-08-11T09:03:22;23.60;99.90
44671;DHT22;48397;53.016;-2.260;2022-08-11T09:06:13;23.70;99.90
44671;DHT22;48397;53.016;-2.260;2022-08-11T09:08:45;23.80;99.90
44671;DHT22;48397;53.016;-2.260;2022-08-11T09:11:22;24.00;99.90
44671;DHT22;48397;53.016;-2.260;2022-08-11T09:14:10;24.20;99.90
44671;DHT22;48397;53.016;-2.260;2022-08-11T09:16:42;24.30;99.90
44671;DHT22;48397;53.016;-2.260;2022-08-11T09:19:17;25.80;99.90
44671;DHT22;48397;53.016;-2.260;2022-08-11T09:21:50;24.50;99.90
44671;DHT22;48397;53.016;-2.260;2022-08-11T09:24:38;24.60;99.90
44671;DHT22;48397;53.016;-2.260;2022-08-11T09:27:25;24.60;99.90
44671;DHT22;48397;53.016;-2.260;2022-08-11T09:29:54;24.70;99.90
44671;DHT22;48397;53.016;-2.260;2022-08-11T09:32:23;24.80;99.90
44671;DHT22;48397;53.016;-2.260;2022-08-11T09:34:51;25.00;99.90
44671;DHT22;48397;53.016;-2.260;2022-08-11T09:37:22;25.10;99.90
44671;DHT22;48397;53.016;-2.260;2022-08-11T09:40:21;25.20;99.90
44671;DHT22;48397;53.016;-2.260;2022-08-11T09:43:02;25.30;99.90
44671;DHT22;48397;53.016;-2.260;2022-08-11T09:45:53;25.30;99.90
44671;DHT22;48397;53.016;-2.260;2022-08-11T09:48:26;25.50;99.90
44671;DHT22;48397;53.016;-2.260;2022-08-11T09:50:59;25.50;99.90
44671;DHT22;48397;53.016;-2.260;2022-08-11T09:53:35;25.50;99.90
44671;DHT22;48397;53.016;-2.260;2022-08-11T09:56:19;25.60;99.90
44671;DHT22;48397;53.016;-2.260;2022-08-11T09:59:07;25.70;99.90
44671;DHT22;48397;53.016;-2.260;2022-08-11T10:01:46;25.80;99.90
44671;DHT22;48397;53.016;-2.260;2022-08-11T10:04:22;25.80;99.90
44671;DHT22;48397;53.016;-2.260;2022-08-11T10:06:53;25.90;99.90
44671;DHT22;48397;53.016;-2.260;2022-08-11T10:09:44;25.90;99.90
44671;DHT22;48397;53.016;-2.260;2022-08-11T10:12:20;25.90;99.90
44671;DHT22;48397;53.016;-2.260;2022-08-11T10:15:03;26.00;99.90
44671;DHT22;48397;53.016;-2.260;2022-08-11T10:18:34;26.00;99.90
44671;DHT22;48397;53.016;-2.260;2022-08-11T10:21:46;26.30;99.90
44671;DHT22;48397;53.016;-2.260;2022-08-11T10:24:35;26.50;99.90
44671;DHT22;48397;53.016;-2.260;2022-08-11T10:27:22;26.50;99.90
44671;DHT22;48397;53.016;-2.260;2022-08-11T10:30:30;26.70;99.90
44671;DHT22;48397;53.016;-2.260;2022-08-11T10:33:17;26.70;99.90
44671;DHT22;48397;53.016;-2.260;2022-08-11T10:36:17;26.80;98.30
44671;DHT22;48397;53.016;-2.260;2022-08-11T10:38:46;26.80;98.30
44671;DHT22;48397;53.016;-2.260;2022-08-11T10:41:21;26.80;98.80
44671;DHT22;48397;53.016;-2.260;2022-08-11T10:44:28;26.90;98.70
44671;DHT22;48397;53.016;-2.260;2022-08-11T10:47:01;26.90;99.00
44671;DHT22;48397;53.016;-2.260;2022-08-11T10:49:48;26.90;98.10
44671;DHT22;48397;53.016;-2.260;2022-08-11T10:52:37;26.90;97.10
44671;DHT22;48397;53.016;-2.260;2022-08-11T10:55:25;27.10;97.40
44671;DHT22;48397;53.016;-2.260;2022-08-11T10:58:12;27.00;97.50
44671;DHT22;48397;53.016;-2.260;2022-08-11T11:01:00;27.10;97.70
44671;DHT22;48397;53.016;-2.260;2022-08-11T11:03:31;27.40;95.70
44671;DHT22;48397;53.016;-2.260;2022-08-11T11:09:10;27.50;94.60
44671;DHT22;48397;53.016;-2.260;2022-08-11T11:11:50;27.60;94.60
44671;DHT22;48397;53.016;-2.260;2022-08-11T11:14:40;27.60;95.00
44671;DHT22;48397;53.016;-2.260;2022-08-11T11:17:31;27.60;95.20
44671;DHT22;48397;53.016;-2.260;2022-08-11T11:20:24;28.00;94.70
44671;DHT22;48397;53.016;-2.260;2022-08-11T11:32:02;28.40;94.10
44671;DHT22;48397;53.016;-2.260;2022-08-11T11:37:32;28.70;93.10
44671;DHT22;48397;53.016;-2.260;2022-08-11T11:40:12;28.80;93.00
44671;DHT22;48397;53.016;-2.260;2022-08-11T11:42:43;28.80;93.00
44671;DHT22;48397;53.016;-2.260;2022-08-11T11:45:15;29.00;89.90
44671;DHT22;48397;53.016;-2.260;2022-08-11T11:47:53;29.10;90.00
44671;DHT22;48397;53.016;-2.260;2022-08-11T11:50:33;29.10;90.30
44671;DHT22;48397;53.016;-2.260;2022-08-11T11:53:07;29.10;90.30
44671;DHT22;48397;53.016;-2.260;2022-08-11T11:55:36;29.30;90.60
44671;DHT22;48397;53.016;-2.260;2022-08-11T11:58:05;29.50;90.40
44671;DHT22;48397;53.016;-2.260;2022-08-11T12:00:52;29.70;87.20
44671;DHT22;48397;53.016;-2.260;2022-08-11T12:03:40;29.90;85.60
44671;DHT22;48397;53.016;-2.260;2022-08-11T12:06:10;30.10;86.00
44671;DHT22;48397;53.016;-2.260;2022-08-11T12:08:41;30.30;85.00
44671;DHT22;48397;53.016;-2.260;2022-08-11T12:11:10;30.40;85.30
44671;DHT22;48397;53.016;-2.260;2022-08-11T12:14:01;30.60;85.30
44671;DHT22;48397;53.016;-2.260;2022-08-11T12:16:33;30.90;83.80
44671;DHT22;48397;53.016;-2.260;2022-08-11T12:19:06;31.10;83.90
44671;DHT22;48397;53.016;-2.260;2022-08-11T12:21:35;31.20;83.40
44671;DHT22;48397;53.016;-2.260;2022-08-11T12:24:05;31.40;84.30
44671;DHT22;48397;53.016;-2.260;2022-08-11T12:26:56;31.80;83.10
44671;DHT22;48397;53.016;-2.260;2022-08-11T12:29:50;31.90;82.00
44671;DHT22;48397;53.016;-2.260;2022-08-11T12:32:26;32.20;78.90
44671;DHT22;48397;53.016;-2.260;2022-08-11T12:34:54;32.30;79.10
44671;DHT22;48397;53.016;-2.260;2022-08-11T12:37:41;32.50;76.90
44671;DHT22;48397;53.016;-2.260;2022-08-11T12:40:13;32.70;73.50
44671;DHT22;48397;53.016;-2.260;2022-08-11T12:43:21;32.80;73.70
44671;DHT22;48397;53.016;-2.260;2022-08-11T12:46:30;32.60;74.30
44671;DHT22;48397;53.016;-2.260;2022-08-11T12:49:04;32.50;73.20
44671;DHT22;48397;53.016;-2.260;2022-08-11T12:51:54;32.30;73.10
44671;DHT22;48397;53.016;-2.260;2022-08-11T12:57:45;32.60;75.90
44671;DHT22;48397;53.016;-2.260;2022-08-11T13:00:32;33.30;72.90
44671;DHT22;48397;53.016;-2.260;2022-08-11T13:03:19;33.30;73.60
44671;DHT22;48397;53.016;-2.260;2022-08-11T13:06:07;33.50;72.20
44671;DHT22;48397;53.016;-2.260;2022-08-11T13:08:37;33.60;70.50
44671;DHT22;48397;53.016;-2.260;2022-08-11T13:11:06;33.60;71.10
44671;DHT22;48397;53.016;-2.260;2022-08-11T13:14:14;34.60;72.00
44671;DHT22;48397;53.016;-2.260;2022-08-11T13:16:43;34.00;69.50
44671;DHT22;48397;53.016;-2.260;2022-08-11T13:19:32;34.00;67.80
44671;DHT22;48397;53.016;-2.260;2022-08-11T13:22:01;34.00;68.90
44671;DHT22;48397;53.016;-2.260;2022-08-11T13:24:31;34.20;68.30
44671;DHT22;48397;53.016;-2.260;2022-08-11T13:27:02;34.40;66.10
44671;DHT22;48397;53.016;-2.260;2022-08-11T13:29:31;34.40;65.70
44671;DHT22;48397;53.016;-2.260;2022-08-11T13:31:59;34.50;67.60
44671;DHT22;48397;53.016;-2.260;2022-08-11T13:34:29;34.30;65.80
44671;DHT22;48397;53.016;-2.260;2022-08-11T13:37:02;34.00;66.70
44671;DHT22;48397;53.016;-2.260;2022-08-11T13:39:32;34.00;67.00
44671;DHT22;48397;53.016;-2.260;2022-08-11T13:42:02;34.00;67.30
44671;DHT22;48397;53.016;-2.260;2022-08-11T13:44:33;34.50;67.80
44671;DHT22;48397;53.016;-2.260;2022-08-11T13:47:04;34.50;68.20
44671;DHT22;48397;53.016;-2.260;2022-08-11T13:49:36;35.00;66.00
44671;DHT22;48397;53.016;-2.260;2022-08-11T13:52:10;35.10;65.10
44671;DHT22;48397;53.016;-2.260;2022-08-11T13:54:41;35.10;65.20
44671;DHT22;48397;53.016;-2.260;2022-08-11T13:57:11;35.10;65.10
44671;DHT22;48397;53.016;-2.260;2022-08-11T14:00:02;35.20;65.00
44671;DHT22;48397;53.016;-2.260;2022-08-11T14:02:55;35.20;65.10
44671;DHT22;48397;53.016;-2.260;2022-08-11T14:05:28;35.50;64.80
44671;DHT22;48397;53.016;-2.260;2022-08-11T14:08:00;35.70;65.20
44671;DHT22;48397;53.016;-2.260;2022-08-11T14:10:30;35.80;62.90
44671;DHT22;48397;53.016;-2.260;2022-08-11T14:13:05;35.50;63.00
44671;DHT22;48397;53.016;-2.260;2022-08-11T14:15:55;35.50;61.90
44671;DHT22;48397;53.016;-2.260;2022-08-11T14:18:29;35.50;62.80
44671;DHT22;48397;53.016;-2.260;2022-08-11T14:21:03;35.70;63.00
44671;DHT22;48397;53.016;-2.260;2022-08-11T14:23:52;36.00;62.50
44671;DHT22;48397;53.016;-2.260;2022-08-11T14:26:28;36.50;62.40
44671;DHT22;48397;53.016;-2.260;2022-08-11T14:29:13;36.90;62.70
44671;DHT22;48397;53.016;-2.260;2022-08-11T14:31:56;37.20;61.30
44671;DHT22;48397;53.016;-2.260;2022-08-11T14:34:26;37.40;61.80
44671;DHT22;48397;53.016;-2.260;2022-08-11T14:37:00;37.70;59.00
44671;DHT22;48397;53.016;-2.260;2022-08-11T14:39:33;37.60;60.40
44671;DHT22;48397;53.016;-2.260;2022-08-11T14:42:04;37.50;60.70
44671;DHT22;48397;53.016;-2.260;2022-08-11T14:45:00;37.70;60.80
44671;DHT22;48397;53.016;-2.260;2022-08-11T14:47:52;38.00;58.70
44671;DHT22;48397;53.016;-2.260;2022-08-11T14:50:26;37.80;59.00
44671;DHT22;48397;53.016;-2.260;2022-08-11T14:53:05;37.80;58.70
44671;DHT22;48397;53.016;-2.260;2022-08-11T14:55:39;37.90;59.10
44671;DHT22;48397;53.016;-2.260;2022-08-11T14:58:29;38.20;58.90
44671;DHT22;48397;53.016;-2.260;2022-08-11T15:00:58;38.60;58.40
44671;DHT22;48397;53.016;-2.260;2022-08-11T15:03:30;38.70;58.60
44671;DHT22;48397;53.016;-2.260;2022-08-11T15:06:01;38.60;58.80
44671;DHT22;48397;53.016;-2.260;2022-08-11T15:08:37;38.60;58.30
44671;DHT22;48397;53.016;-2.260;2022-08-11T15:11:28;38.70;55.40
44671;DHT22;48397;53.016;-2.260;2022-08-11T15:14:15;38.40;55.00
44671;DHT22;48397;53.016;-2.260;2022-08-11T15:17:08;37.90;56.10
44671;DHT22;48397;53.016;-2.260;2022-08-11T15:19:40;37.90;56.90
44671;DHT22;48397;53.016;-2.260;2022-08-11T15:22:27;38.20;57.10
44671;DHT22;48397;53.016;-2.260;2022-08-11T15:25:13;38.70;56.60
44671;DHT22;48397;53.016;-2.260;2022-08-11T15:27:45;39.10;56.30
44671;DHT22;48397;53.016;-2.260;2022-08-11T15:30:32;39.50;56.00
44671;DHT22;48397;53.016;-2.260;2022-08-11T15:33:19;40.00;55.40
44671;DHT22;48397;53.016;-2.260;2022-08-11T15:36:08;40.40;54.80
44671;DHT22;48397;53.016;-2.260;2022-08-11T15:39:03;40.70;55.00
44671;DHT22;48397;53.016;-2.260;2022-08-11T15:41:44;41.00;54.60
44671;DHT22;48397;53.016;-2.260;2022-08-11T15:44:36;41.30;54.70
44671;DHT22;48397;53.016;-2.260;2022-08-11T15:47:41;41.50;54.00
44671;DHT22;48397;53.016;-2.260;2022-08-11T15:50:16;41.80;54.70
44671;DHT22;48397;53.016;-2.260;2022-08-11T15:52:51;42.00;54.60
44671;DHT22;48397;53.016;-2.260;2022-08-11T15:55:21;42.00;52.20
44671;DHT22;48397;53.016;-2.260;2022-08-11T15:57:52;41.70;52.30
44671;DHT22;48397;53.016;-2.260;2022-08-11T16:00:40;41.50;52.40
44671;DHT22;48397;53.016;-2.260;2022-08-11T16:03:43;41.70;52.70
44671;DHT22;48397;53.016;-2.260;2022-08-11T16:09:46;41.90;50.40
44671;DHT22;48397;53.016;-2.260;2022-08-11T16:12:31;41.50;51.10
44671;DHT22;48397;53.016;-2.260;2022-08-11T16:15:04;41.50;51.40
44671;DHT22;48397;53.016;-2.260;2022-08-11T16:17:58;41.80;51.70
44671;DHT22;48397;53.016;-2.260;2022-08-11T16:20:27;42.00;51.60
44671;DHT22;48397;53.016;-2.260;2022-08-11T16:22:59;42.10;52.00
44671;DHT22;48397;53.016;-2.260;2022-08-11T16:25:32;42.30;51.90
44671;DHT22;48397;53.016;-2.260;2022-08-11T16:28:22;42.40;51.30
44671;DHT22;48397;53.016;-2.260;2022-08-11T16:30:52;42.50;51.10
44671;DHT22;48397;53.016;-2.260;2022-08-11T16:33:21;42.70;51.30
44671;DHT22;48397;53.016;-2.260;2022-08-11T16:36:11;42.80;50.10
44671;DHT22;48397;53.016;-2.260;2022-08-11T16:38:59;42.70;50.60
44671;DHT22;48397;53.016;-2.260;2022-08-11T16:41:31;42.80;50.80
44671;DHT22;48397;53.016;-2.260;2022-08-11T16:44:20;42.90;51.20
44671;DHT22;48397;53.016;-2.260;2022-08-11T16:47:11;42.70;51.00
44671;DHT22;48397;53.016;-2.260;2022-08-11T16:49:53;42.60;50.80
44671;DHT22;48397;53.016;-2.260;2022-08-11T16:52:22;42.60;50.40
44671;DHT22;48397;53.016;-2.260;2022-08-11T16:54:50;42.50;50.30
44671;DHT22;48397;53.016;-2.260;2022-08-11T16:57:24;42.60;50.30
44671;DHT22;48397;53.016;-2.260;2022-08-11T17:00:15;42.80;50.50
44671;DHT22;48397;53.016;-2.260;2022-08-11T17:02:49;42.80;48.60
44671;DHT22;48397;53.016;-2.260;2022-08-11T17:05:40;42.20;50.00
44671;DHT22;48397;53.016;-2.260;2022-08-11T17:08:36;41.60;51.10
44671;DHT22;48397;53.016;-2.260;2022-08-11T17:11:26;41.00;49.60
44671;DHT22;48397;53.016;-2.260;2022-08-11T17:14:20;40.40;50.30
44671;DHT22;48397;53.016;-2.260;2022-08-11T17:17:06;40.00;51.00
44671;DHT22;48397;53.016;-2.260;2022-08-11T17:19:44;40.00;51.40
44671;DHT22;48397;53.016;-2.260;2022-08-11T17:22:35;40.20;51.50
44671;DHT22;48397;53.016;-2.260;2022-08-11T17:25:24;40.60;50.60
44671;DHT22;48397;53.016;-2.260;2022-08-11T17:27:55;40.40;51.00
44671;DHT22;48397;53.016;-2.260;2022-08-11T17:30:24;39.90;51.20
44671;DHT22;48397;53.016;-2.260;2022-08-11T17:33:14;39.80;53.40
44671;DHT22;48397;53.016;-2.260;2022-08-11T17:36:01;39.50;51.40
44671;DHT22;48397;53.016;-2.260;2022-08-11T17:38:30;39.50;52.50
44671;DHT22;48397;53.016;-2.260;2022-08-11T17:41:01;39.50;51.70
44671;DHT22;48397;53.016;-2.260;2022-08-11T17:43:52;39.70;51.20
44671;DHT22;48397;53.016;-2.260;2022-08-11T17:46:40;39.80;51.70
44671;DHT22;48397;53.016;-2.260;2022-08-11T17:49:34;39.90;51.10
44671;DHT22;48397;53.016;-2.260;2022-08-11T17:52:05;40.00;50.90
44671;DHT22;48397;53.016;-2.260;2022-08-11T17:54:52;39.70;50.50
44671;DHT22;48397;53.016;-2.260;2022-08-11T17:57:40;39.40;50.30
44671;DHT22;48397;53.016;-2.260;2022-08-11T18:00:27;39.30;50.70
44671;DHT22;48397;53.016;-2.260;2022-08-11T18:02:57;39.10;50.10
44671;DHT22;48397;53.016;-2.260;2022-08-11T18:05:45;39.10;50.50
44671;DHT22;48397;53.016;-2.260;2022-08-11T18:08:17;39.10;50.50
44671;DHT22;48397;53.016;-2.260;2022-08-11T18:11:06;39.10;51.30
44671;DHT22;48397;53.016;-2.260;2022-08-11T18:14:13;38.80;51.30
44671;DHT22;48397;53.016;-2.260;2022-08-11T18:17:00;38.60;50.70
44671;DHT22;48397;53.016;-2.260;2022-08-11T18:19:47;38.60;50.60
44671;DHT22;48397;53.016;-2.260;2022-08-11T18:22:35;38.70;50.60
44671;DHT22;48397;53.016;-2.260;2022-08-11T18:25:26;38.60;50.50
44671;DHT22;48397;53.016;-2.260;2022-08-11T18:28:16;38.40;50.10
44671;DHT22;48397;53.016;-2.260;2022-08-11T18:31:12;38.00;49.80
44671;DHT22;48397;53.016;-2.260;2022-08-11T18:34:04;38.00;50.30
44671;DHT22;48397;53.016;-2.260;2022-08-11T18:37:03;37.70;50.30
44671;DHT22;48397;53.016;-2.260;2022-08-11T18:39:57;37.20;50.30
44671;DHT22;48397;53.016;-2.260;2022-08-11T18:42:47;36.80;50.40
44671;DHT22;48397;53.016;-2.260;2022-08-11T18:45:39;36.20;50.40
44671;DHT22;48397;53.016;-2.260;2022-08-11T18:48:36;36.10;50.30
44671;DHT22;48397;53.016;-2.260;2022-08-11T18:51:24;36.10;50.70
44671;DHT22;48397;53.016;-2.260;2022-08-11T18:54:12;35.70;50.60
44671;DHT22;48397;53.016;-2.260;2022-08-11T18:57:02;34.90;50.60
44671;DHT22;48397;53.016;-2.260;2022-08-11T18:59:51;34.00;51.10
44671;DHT22;48397;53.016;-2.260;2022-08-11T19:02:39;33.10;51.40
44671;DHT22;48397;53.016;-2.260;2022-08-11T19:05:29;32.40;52.20
44671;DHT22;48397;53.016;-2.260;2022-08-11T19:08:41;31.70;52.60
44671;DHT22;48397;53.016;-2.260;2022-08-11T19:11:32;31.10;53.30
44671;DHT22;48397;53.016;-2.260;2022-08-11T19:14:20;30.60;56.80
44671;DHT22;48397;53.016;-2.260;2022-08-11T19:17:08;30.00;57.50
44671;DHT22;48397;53.016;-2.260;2022-08-11T19:20:15;29.40;58.30
44671;DHT22;48397;53.016;-2.260;2022-08-11T19:23:03;28.50;57.50
44671;DHT22;48397;53.016;-2.260;2022-08-11T19:25:50;28.40;58.50
44671;DHT22;48397;53.016;-2.260;2022-08-11T19:28:38;27.30;59.00
44671;DHT22;48397;53.016;-2.260;2022-08-11T19:31:27;27.90;59.30
44671;DHT22;48397;53.016;-2.260;2022-08-11T19:34:21;27.60;60.10
44671;DHT22;48397;53.016;-2.260;2022-08-11T19:39:27;26.90;59.90
44671;DHT22;48397;53.016;-2.260;2022-08-11T19:44:38;26.60;60.70
44671;DHT22;48397;53.016;-2.260;2022-08-11T19:47:25;26.10;61.50
44671;DHT22;48397;53.016;-2.260;2022-08-11T19:50:14;25.90;61.90
44671;DHT22;48397;53.016;-2.260;2022-08-11T19:53:04;25.90;62.50
44671;DHT22;48397;53.016;-2.260;2022-08-11T19:55:52;25.70;62.80
44671;DHT22;48397;53.016;-2.260;2022-08-11T19:58:39;25.30;65.30
44671;DHT22;48397;53.016;-2.260;2022-08-11T20:01:26;25.10;66.10
44671;DHT22;48397;53.016;-2.260;2022-08-11T20:04:32;25.00;67.20
44671;DHT22;48397;53.016;-2.260;2022-08-11T20:07:19;25.00;67.70
44671;DHT22;48397;53.016;-2.260;2022-08-11T20:10:06;24.80;69.30
44671;DHT22;48397;53.016;-2.260;2022-08-11T20:12:54;24.80;70.40
44671;DHT22;48397;53.016;-2.260;2022-08-11T20:15:48;24.80;70.80
44671;DHT22;48397;53.016;-2.260;2022-08-11T20:18:37;24.80;71.20
44671;DHT22;48397;53.016;-2.260;2022-08-11T20:21:25;24.80;71.40
44671;DHT22;48397;53.016;-2.260;2022-08-11T20:24:13;24.70;71.40
44671;DHT22;48397;53.016;-2.260;2022-08-11T20:27:01;24.70;73.30
44671;DHT22;48397;53.016;-2.260;2022-08-11T20:29:52;24.70;74.30
44671;DHT22;48397;53.016;-2.260;2022-08-11T20:32:40;24.60;74.10
44671;DHT22;48397;53.016;-2.260;2022-08-11T20:35:28;24.60;74.60
44671;DHT22;48397;53.016;-2.260;2022-08-11T20:38:17;24.60;74.80